Time;durP1;ratioP1;P1;durP2;ratioP2;P2;SDS_P1;SDS_P2;PMS_P1;PMS_P2;Temp;Humidity;BMP_temperature;BMP_pressure;BME280_temperature;BME280_humidity;BME280_pressure;Samples;Min_cycle;Max_cycle;Signal;HPM_P1;HPM_P2
2023/06/28 00:00:43;;;;;;;18.25;9.77;;;;;;;-143.21;74.28;71366.31;5090429;28;20585;-79
2023/06/28 00:03:13;;;;;;;14.68;9.88;;;;;;;-143.21;74.46;71366.31;5090811;28;20216;-88
2023/06/28 00:05:41;;;;;;;14.07;9.48;;;;;;;-143.21;74.94;71372.25;5090744;28;20208;-86
2023/06/28 00:08:08;;;;;;;16.67;10.48;;;;;;;-143.21;75.20;71374.22;5083404;28;20204;-86
2023/06/28 00:10:35;;;;;;;24.20;10.85;;;;;;;-143.21;75.32;71370.28;5090973;28;20196;-86
2023/06/28 00:13:01;;;;;;;17.42;11.13;;;;;;;-143.21;75.83;71368.28;5090392;28;20207;-85
2023/06/28 00:15:28;;;;;;;16.00;10.27;;;;;;;-143.21;75.87;71370.28;5091051;28;20671;-87
2023/06/28 00:17:55;;;;;;;21.75;10.70;;;;;;;-143.21;75.21;71368.28;5090918;28;20199;-87
2023/06/28 00:22:18;;;;;;;15.13;9.52;;;;;;;-143.21;73.78;71384.16;5149886;27;21016;-86
2023/06/28 00:24:45;;;;;;;15.38;9.68;;;;;;;-143.21;74.75;71386.13;5150103;27;20200;-86
2023/06/28 00:27:12;;;;;;;15.85;10.50;;;;;;;-143.21;75.02;71388.09;5150308;27;20227;-86
2023/06/28 00:29:38;;;;;;;21.45;10.77;;;;;;;-143.21;75.72;71398.03;5152625;27;20554;-85
2023/06/28 00:32:06;;;;;;;19.02;10.57;;;;;;;-143.21;76.08;71405.94;5163498;27;20247;-86
2023/06/28 00:34:32;;;;;;;17.48;9.90;;;;;;;-143.21;76.06;71411.91;5159551;27;20194;-85
2023/06/28 00:36:59;;;;;;;19.30;10.05;;;;;;;-143.21;76.31;71415.88;5158180;27;20195;-87
2023/06/28 00:39:27;;;;;;;20.25;10.52;;;;;;;-143.21;76.36;71415.88;5156575;27;20187;-86
2023/06/28 00:41:54;;;;;;;14.32;10.48;;;;;;;-143.21;75.68;71413.88;5151518;27;20230;-86
2023/06/28 00:44:21;;;;;;;16.13;11.07;;;;;;;-143.21;76.36;71423.78;5150733;27;20194;-86
2023/06/28 00:46:50;;;;;;;18.20;10.35;;;;;;;-143.21;76.61;71431.72;5149782;27;20191;-86
2023/06/28 00:49:17;;;;;;;20.52;10.70;;;;;;;-143.21;76.81;71425.78;5150629;27;20195;-86
2023/06/28 00:51:45;;;;;;;15.88;10.73;;;;;;;-143.21;77.32;71439.66;5149628;27;20191;-87
2023/06/28 00:54:12;;;;;;;18.90;11.43;;;;;;;-143.21;77.16;71433.72;5149778;27;20187;-86
2023/06/28 00:56:40;;;;;;;14.48;10.50;;;;;;;-143.21;77.80;71443.63;5149678;27;20198;-86
2023/06/28 00:59:07;;;;;;;19.90;11.05;;;;;;;-143.21;78.19;71445.59;5149172;27;20199;-86
2023/06/28 01:01:34;;;;;;;20.02;10.27;;;;;;;-143.21;78.42;71441.63;5149212;27;20222;-87
2023/06/28 01:04:04;;;;;;;15.43;10.15;;;;;;;-143.21;77.45;71433.72;5149901;27;20258;-86
2023/06/28 01:06:35;;;;;;;19.27;10.52;;;;;;;-143.21;77.37;71439.66;5150808;27;20179;-86
2023/06/28 01:09:03;;;;;;;15.50;10.13;;;;;;;-143.21;76.96;71441.63;5131092;28;20207;-86
2023/06/28 01:11:31;;;;;;;18.75;9.70;;;;;;;-143.21;76.79;71445.59;5129102;28;20187;-87
2023/06/28 01:14:00;;;;;;;18.15;10.38;;;;;;;-143.21;76.93;71449.56;5128958;28;20188;-86
2023/06/28 01:16:27;;;;;;;15.85;9.77;;;;;;;-143.21;77.22;71449.56;5129297;28;20230;-86
2023/06/28 01:18:54;;;;;;;14.98;9.82;;;;;;;-143.21;77.23;71451.56;5128909;28;20191;-87
2023/06/28 01:21:23;;;;;;;19.20;10.02;;;;;;;-143.21;76.90;71445.59;5128271;28;20616;-86
2023/06/28 01:23:52;;;;;;;15.68;10.15;;;;;;;-143.21;77.32;71453.53;5128793;28;20195;-86
2023/06/28 01:26:19;;;;;;;18.02;10.20;;;;;;;-143.21;77.33;71447.59;5128865;28;20601;-87
2023/06/28 01:28:47;;;;;;;15.88;9.90;;;;;;;-143.21;77.91;71453.53;5129033;28;20192;-86
2023/06/28 01:31:14;;;;;;;13.73;10.25;;;;;;;-143.21;78.03;71463.44;5131757;28;20198;-86
2023/06/28 01:33:42;;;;;;;17.73;10.32;;;;;;;-143.21;77.50;71457.50;5116051;28;20569;-86
2023/06/28 01:36:09;;;;;;;15.98;10.65;;;;;;;-143.21;77.12;71475.34;5120128;28;20196;-86
2023/06/28 01:38:39;;;;;;;17.45;10.52;;;;;;;-143.21;77.57;71485.25;5141107;27;20202;-86
2023/06/28 01:41:08;;;;;;;17.42;10.50;;;;;;;-143.21;78.26;71493.19;5141418;27;20223;-86
2023/06/28 01:43:35;;;;;;;19.60;10.80;;;;;;;-143.21;78.13;71483.28;5142234;27;20188;-86
2023/06/28 01:46:02;;;;;;;14.38;10.38;;;;;;;-143.21;78.23;71497.16;5142940;27;20193;-86
2023/06/28 01:48:29;;;;;;;23.13;11.55;;;;;;;-143.21;77.99;71497.16;5139724;27;20199;-86
2023/06/28 01:50:57;;;;;;;19.55;12.02;;;;;;;-143.21;77.89;71491.22;5135141;27;20192;-86
2023/06/28 01:53:23;;;;;;;14.15;12.65;;;;;;;-143.21;77.10;71516.97;5135597;27;20252;-86
2023/06/28 01:55:50;;;;;;;21.17;13.20;;;;;;;-143.21;76.90;71534.81;5138456;27;20541;-86
2023/06/28 01:58:18;;;;;;;17.90;13.30;;;;;;;-143.21;76.77;71534.81;5143082;27;20194;-85
2023/06/28 02:00:45;;;;;;;16.83;13.20;;;;;;;-143.21;77.13;71540.78;5152894;27;20216;-86
2023/06/28 02:03:12;;;;;;;18.10;13.77;;;;;;;-143.21;77.48;71538.78;5149335;27;20202;-85
2023/06/28 02:05:40;;;;;;;25.40;18.90;;;;;;;-143.21;78.08;71540.78;5143762;27;20811;-86
2023/06/28 02:08:07;;;;;;;30.35;22.92;;;;;;;-143.21;78.00;71544.75;5142652;27;20260;-86
2023/06/28 02:10:34;;;;;;;29.45;22.33;;;;;;;-143.21;78.37;71542.75;5143440;27;20191;-86
2023/06/28 02:13:01;;;;;;;28.90;24.25;;;;;;;-143.21;77.64;71542.75;5142325;27;20629;-87
2023/06/28 02:15:29;;;;;;;36.30;24.33;;;;;;;-143.21;77.27;71546.72;5142741;27;20277;-86
2023/06/28 02:17:58;;;;;;;30.00;21.88;;;;;;;-143.21;77.43;71542.75;5141648;27;20196;-86
2023/06/28 02:20:24;;;;;;;22.63;17.80;;;;;;;-143.21;77.10;71550.69;5140645;27;20630;-86
2023/06/28 02:22:51;;;;;;;20.38;16.10;;;;;;;-143.21;77.07;71560.59;5142722;27;20203;-86
2023/06/28 02:25:18;;;;;;;18.35;16.25;;;;;;;-143.21;77.48;71572.50;5139692;27;20192;-86
2023/06/28 02:27:45;;;;;;;18.60;15.13;;;;;;;-143.21;77.86;71584.41;5139869;27;20184;-86
2023/06/28 02:30:12;;;;;;;17.95;16.00;;;;;;;-143.21;78.45;71594.31;5141555;27;20220;-86
2023/06/28 02:32:40;;;;;;;19.92;15.55;;;;;;;-143.21;79.19;71602.25;5142511;27;20421;-86
2023/06/28 02:35:07;;;;;;;21.85;15.65;;;;;;;-143.21;79.66;71606.22;5142924;27;20194;-86
2023/06/28 02:37:34;;;;;;;19.20;16.25;;;;;;;-143.21;80.10;71612.16;5141004;27;20187;-80
2023/06/28 02:40:01;;;;;;;17.33;15.48;;;;;;;-143.21;80.63;71614.13;5133580;27;20195;-79
2023/06/28 02:42:28;;;;;;;16.88;15.07;;;;;;;-143.21;81.31;71622.06;5133102;27;20276;-79
2023/06/28 02:44:55;;;;;;;19.88;14.43;;;;;;;-143.21;82.00;71622.06;5132703;27;20257;-79
2023/06/28 02:47:22;;;;;;;18.90;15.32;;;;;;;-143.21;82.41;71628.00;5133247;27;20726;-80
2023/06/28 02:49:50;;;;;;;19.60;14.98;;;;;;;-143.21;82.44;71620.09;5133625;27;20243;-79
2023/06/28 02:52:16;;;;;;;17.65;14.93;;;;;;;-143.21;82.75;71620.09;5133698;27;20596;-79
2023/06/28 02:54:43;;;;;;;18.70;15.57;;;;;;;-143.21;82.74;71624.06;5133079;27;20583;-79
2023/06/28 02:57:10;;;;;;;19.13;15.45;;;;;;;-143.21;82.71;71620.09;5133007;27;20206;-79
2023/06/28 02:59:37;;;;;;;19.45;15.15;;;;;;;-143.21;82.55;71612.16;5133235;27;20240;-80
2023/06/28 03:02:05;;;;;;;21.58;16.30;;;;;;;-143.21;82.12;71598.28;5132708;27;20316;-79
2023/06/28 03:04:32;;;;;;;20.48;14.68;;;;;;;-143.21;81.40;71592.31;5132132;27;20195;-79
2023/06/28 03:07:01;;;;;;;20.10;14.75;;;;;;;-143.21;81.57;71600.25;5132943;27;20207;-79
2023/06/28 03:09:28;;;;;;;16.85;15.07;;;;;;;-143.21;82.15;71616.13;5133255;27;20195;-79
2023/06/28 03:11:55;;;;;;;16.85;15.05;;;;;;;-143.21;82.39;71624.06;5133001;27;20203;-79
2023/06/28 03:14:21;;;;;;;20.05;15.35;;;;;;;-143.21;82.21;71618.09;5132881;27;20191;-80
2023/06/28 03:16:48;;;;;;;19.17;15.77;;;;;;;-143.21;82.10;71614.13;5133146;27;20187;-80
2023/06/28 03:19:15;;;;;;;17.35;15.13;;;;;;;-143.21;82.00;71602.25;5132720;27;20192;-79
2023/06/28 03:21:42;;;;;;;17.48;14.90;;;;;;;-143.21;81.29;71586.38;5132330;27;20584;-80
2023/06/28 03:24:19;;;;;;;20.40;15.65;;;;;;;-143.21;81.00;71582.41;5132536;27;20603;-79
2023/06/28 03:26:46;;;;;;;20.67;15.68;;;;;;;-143.21;80.07;71572.50;5132529;27;20191;-79
2023/06/28 03:29:13;;;;;;;17.77;15.32;;;;;;;-143.21;80.10;71568.53;5132550;27;20188;-79
2023/06/28 03:31:39;;;;;;;18.90;15.82;;;;;;;-143.21;79.44;71562.59;5132633;27;20199;-79
2023/06/28 03:34:06;;;;;;;20.90;16.63;;;;;;;-143.21;79.65;71580.44;5133191;27;20290;-79
2023/06/28 03:36:34;;;;;;;18.52;16.48;;;;;;;-143.21;80.05;71582.41;5133249;27;20199;-79
2023/06/28 03:39:01;;;;;;;18.02;16.10;;;;;;;-143.21;80.21;71574.47;5132465;27;20271;-80
2023/06/28 03:41:29;;;;;;;20.95;17.08;;;;;;;-143.21;79.42;71574.47;5132658;27;20215;-80
2023/06/28 03:43:56;;;;;;;23.23;17.30;;;;;;;-143.21;79.26;71566.56;5132332;27;20657;-80
2023/06/28 03:46:23;;;;;;;25.80;16.92;;;;;;;-143.21;79.06;71566.56;5132302;27;20650;-80
2023/06/28 03:48:50;;;;;;;22.80;17.13;;;;;;;-143.21;79.31;71560.59;5132282;27;20202;-78
2023/06/28 03:51:16;;;;;;;20.27;16.58;;;;;;;-143.21;79.57;71556.63;5132186;27;20199;-79
2023/06/28 03:53:43;;;;;;;20.38;16.70;;;;;;;-143.21;79.74;71554.66;5132116;27;20191;-79
2023/06/28 03:56:10;;;;;;;24.60;17.67;;;;;;;-143.21;79.52;71546.72;5131870;27;20195;-80
2023/06/28 03:58:39;;;;;;;24.85;18.05;;;;;;;-143.21;79.10;71544.75;5132028;27;20199;-80
2023/06/28 04:01:06;;;;;;;23.20;17.65;;;;;;;-143.21;79.21;71542.75;5131870;27;20195;-79
2023/06/28 04:03:32;;;;;;;27.35;18.38;;;;;;;-143.21;79.29;71544.75;5131846;27;20214;-79
2023/06/28 04:05:59;;;;;;;26.35;19.25;;;;;;;-143.21;79.26;71528.88;5134806;27;20203;-86
2023/06/28 04:08:26;;;;;;;27.83;17.95;;;;;;;-143.21;78.23;71526.91;5140295;27;20192;-86
2023/06/28 04:10:53;;;;;;;24.38;19.75;;;;;;;-143.21;78.42;71540.78;5140405;27;20191;-85
2023/06/28 04:13:20;;;;;;;28.35;19.70;;;;;;;-143.21;79.05;71550.69;5139962;27;20195;-86
2023/06/28 04:15:48;;;;;;;25.35;20.80;;;;;;;-143.21;79.92;71566.56;5133739;27;20199;-86
2023/06/28 04:18:15;;;;;;;32.15;21.15;;;;;;;-143.21;80.54;71562.59;5132108;27;20658;-87
2023/06/28 04:20:41;;;;;;;32.53;21.45;;;;;;;-143.21;80.98;71560.59;5132092;28;20239;-87
2023/06/28 04:23:08;;;;;;;27.90;20.38;;;;;;;-143.21;81.05;71562.59;5131907;28;20222;-87
2023/06/28 04:25:37;;;;;;;27.08;20.30;;;;;;;-143.21;81.33;71564.56;5131956;28;20195;-87
2023/06/28 04:28:04;;;;;;;30.13;20.60;;;;;;;-143.21;81.62;71558.63;5131730;28;20203;-86
2023/06/28 04:30:32;;;;;;;25.98;19.95;;;;;;;-143.21;81.60;71558.63;5135450;28;20199;-87
2023/06/28 04:33:04;;;;;;;27.48;20.05;;;;;;;-143.21;82.18;71562.59;5136195;28;20196;-86
2023/06/28 04:35:34;;;;;;;25.95;19.98;;;;;;;-143.21;82.26;71556.63;5131786;28;20657;-87
2023/06/28 04:38:03;;;;;;;21.75;18.92;;;;;;;-143.21;81.02;71530.88;5132264;28;20191;-86
2023/06/28 04:40:30;;;;;;;24.58;19.25;;;;;;;-143.21;80.89;71528.88;5131832;28;20191;-86
2023/06/28 04:42:57;;;;;;;24.42;19.15;;;;;;;-143.21;81.13;71526.91;5131818;28;20219;-88
2023/06/28 04:45:35;;;;;;;25.40;20.02;;;;;;;-143.21;81.34;71516.97;5131796;28;20196;-87
2023/06/28 04:48:05;;;;;;;27.67;19.83;;;;;;;-143.21;81.42;71522.94;5131991;28;20270;-86
2023/06/28 04:50:32;;;;;;;28.20;20.15;;;;;;;-143.21;81.47;71526.91;5132185;28;20183;-86
2023/06/28 04:52:59;;;;;;;21.60;18.35;;;;;;;-143.21;80.66;71518.97;5132007;28;20260;-87
2023/06/28 04:55:32;;;;;;;25.55;18.20;;;;;;;-143.21;80.76;71524.91;5137967;28;20187;-87
2023/06/28 04:58:00;;;;;;;23.70;17.95;;;;;;;-143.21;80.98;71526.91;5141868;28;20218;-85
2023/06/28 05:00:27;;;;;;;22.75;18.60;;;;;;;-143.21;80.81;71524.91;5137605;28;20223;-86
2023/06/28 05:02:56;;;;;;;24.90;18.00;;;;;;;-143.21;80.25;71509.06;5138222;28;20238;-86
2023/06/28 05:05:24;;;;;;;23.08;18.30;;;;;;;-143.21;80.69;71511.03;5132824;28;20195;-86
2023/06/28 05:07:52;;;;;;;25.25;20.02;;;;;;;-143.21;80.92;71516.97;5136070;27;20209;-85
2023/06/28 05:10:19;;;;;;;24.70;19.45;;;;;;;-143.21;81.12;71520.94;5137230;27;20196;-85
2023/06/28 05:12:46;;;;;;;23.17;19.08;;;;;;;-143.21;81.74;71524.91;5136439;27;20543;-86
2023/06/28 05:15:13;;;;;;;24.92;19.90;;;;;;;-143.21;82.14;71536.81;5138327;27;20199;-85
2023/06/28 05:17:40;;;;;;;25.50;19.15;;;;;;;-143.21;83.17;71540.78;5135789;27;20196;-87
2023/06/28 05:20:07;;;;;;;26.15;19.17;;;;;;;-143.21;83.33;71530.88;5137078;27;20199;-85
2023/06/28 05:22:36;;;;;;;27.48;19.85;;;;;;;-143.21;82.81;71513.03;5136095;27;20215;-86
2023/06/28 05:25:03;;;;;;;24.02;19.80;;;;;;;-143.21;82.52;71511.03;5135251;27;20195;-86
2023/06/28 05:27:30;;;;;;;25.02;19.00;;;;;;;-143.21;82.71;71513.03;5137364;27;20624;-86
2023/06/28 05:29:57;;;;;;;25.02;20.70;;;;;;;-143.21;82.96;71509.06;5136352;27;20195;-88
2023/06/28 05:32:24;;;;;;;25.00;19.90;;;;;;;-143.21;82.81;71503.09;5136871;27;20244;-84
2023/06/28 05:34:50;;;;;;;23.55;19.55;;;;;;;-143.21;82.68;71499.13;5135113;27;20195;-86
2023/06/28 05:37:17;;;;;;;24.67;19.60;;;;;;;-143.21;82.52;71495.19;5135157;27;20195;-86
2023/06/28 05:39:47;;;;;;;31.85;19.40;;;;;;;-143.21;81.70;71483.28;5135271;27;20203;-86
2023/06/28 05:42:14;;;;;;;25.75;20.50;;;;;;;-143.21;81.62;71483.28;5137917;27;20241;-86
2023/06/28 05:44:41;;;;;;;23.55;19.92;;;;;;;-143.21;81.37;71469.41;5137599;27;20282;-85
2023/06/28 05:47:08;;;;;;;27.85;20.88;;;;;;;-143.21;80.96;71461.47;5135927;27;20619;-86
2023/06/28 05:49:37;;;;;;;31.55;22.30;;;;;;;-143.21;80.41;71475.34;5134777;27;20670;-86
2023/06/28 05:52:05;;;;;;;25.73;21.55;;;;;;;-143.21;80.68;71485.25;5135020;27;20278;-87
2023/06/28 05:54:32;;;;;;;26.48;22.33;;;;;;;-143.21;80.79;71489.22;5135077;27;20223;-87
2023/06/28 05:57:00;;;;;;;28.95;22.55;;;;;;;-143.21;81.04;71487.25;5134429;27;20191;-87
2023/06/28 05:59:27;;;;;;;27.90;21.75;;;;;;;-143.21;81.56;71489.22;5135592;27;20202;-87
2023/06/28 06:01:53;;;;;;;30.67;23.08;;;;;;;-143.21;81.31;71479.31;5136053;27;20215;-87
2023/06/28 06:04:20;;;;;;;31.02;22.35;;;;;;;-143.21;81.37;71461.47;5134388;27;20223;-87
2023/06/28 06:06:47;;;;;;;33.45;22.70;;;;;;;-143.21;80.87;71451.56;5135230;27;20199;-87
2023/06/28 06:09:14;;;;;;;30.02;23.08;;;;;;;-143.21;80.12;71435.69;5135823;27;20192;-86
2023/06/28 06:11:41;;;;;;;31.52;26.23;;;;;;;-143.21;79.80;71423.78;5134463;27;20195;-87
2023/06/28 06:14:09;;;;;;;33.15;23.92;;;;;;;-143.21;79.50;71407.94;5134149;27;20273;-86
2023/06/28 06:16:36;;;;;;;31.10;22.58;;;;;;;-143.21;78.18;71394.06;5136901;27;20602;-86
2023/06/28 06:19:03;;;;;;;29.92;21.67;;;;;;;-143.21;75.54;71388.09;5136235;27;20203;-86
2023/06/28 06:21:30;;;;;;;26.42;20.75;;;;;;;-143.21;75.12;71409.91;5134762;27;20227;-85
2023/06/28 06:23:57;;;;;;;25.00;20.15;;;;;;;-143.21;74.99;71407.94;5141804;27;20211;-85
2023/06/28 06:26:24;;;;;;;24.38;19.83;;;;;;;-143.21;75.72;71411.91;5142564;27;20191;-86
2023/06/28 06:28:51;;;;;;;25.95;19.58;;;;;;;-143.21;75.31;71423.78;5138402;27;20263;-87
2023/06/28 06:31:19;;;;;;;24.88;19.77;;;;;;;-143.21;75.29;71396.03;5139840;27;20200;-87
2023/06/28 06:33:46;;;;;;;22.88;19.38;;;;;;;-143.21;75.08;71394.06;5134124;27;20248;-87
2023/06/28 06:36:12;;;;;;;24.80;18.73;;;;;;;-143.21;74.62;71396.03;5134211;27;20200;-86
2023/06/28 06:38:39;;;;;;;28.58;19.27;;;;;;;-143.21;74.50;71390.09;5133698;27;20198;-87
2023/06/28 06:41:06;;;;;;;23.95;18.33;;;;;;;-143.21;74.37;71392.06;5133853;27;20199;-86
2023/06/28 06:43:33;;;;;;;23.92;18.52;;;;;;;-143.21;74.01;71386.13;5133823;27;20227;-86
2023/06/28 06:46:00;;;;;;;23.52;17.30;;;;;;;-143.21;74.29;71388.09;5133646;27;20278;-86
2023/06/28 06:48:28;;;;;;;23.45;17.75;;;;;;;-143.21;74.30;71380.19;5133296;27;20764;-86
2023/06/28 06:50:55;;;;;;;21.60;17.33;;;;;;;-143.21;73.91;71380.19;5133546;27;20196;-87
2023/06/28 06:53:22;;;;;;;21.63;16.85;;;;;;;-143.21;73.49;71360.34;5133244;27;20187;-86
2023/06/28 06:55:49;;;;;;;21.30;16.58;;;;;;;-143.21;73.06;71374.22;5133195;27;20206;-86
2023/06/28 06:58:16;;;;;;;22.80;17.25;;;;;;;-143.21;73.63;71372.25;5133077;27;20191;-87
2023/06/28 07:00:42;;;;;;;21.67;16.80;;;;;;;-143.21;73.22;71374.22;5132869;27;20214;-86
2023/06/28 07:03:11;;;;;;;21.38;16.55;;;;;;;-143.21;73.41;71372.25;5133016;27;20589;-86
2023/06/28 07:05:39;;;;;;;29.13;17.27;;;;;;;-143.21;73.78;71362.34;5132966;27;20561;-87
2023/06/28 07:08:06;;;;;;;23.98;16.63;;;;;;;-143.21;73.94;71360.34;5132798;27;20199;-88
2023/06/28 07:10:33;;;;;;;20.80;16.02;;;;;;;-143.21;73.80;71364.31;5132673;27;20196;-86
2023/06/28 07:12:59;;;;;;;25.88;18.65;;;;;;;-143.21;74.05;71376.22;5132603;27;20482;-85
2023/06/28 07:15:26;;;;;;;24.17;18.17;;;;;;;-143.21;74.41;71394.06;5132818;27;20256;-86
2023/06/28 07:17:54;;;;;;;19.88;15.93;;;;;;;-143.21;74.70;71384.16;5132857;27;20206;-86
2023/06/28 07:20:21;;;;;;;27.27;17.35;;;;;;;-143.21;74.65;71384.16;5132363;27;20680;-88
2023/06/28 07:22:49;;;;;;;25.30;16.08;;;;;;;-143.21;74.39;71370.28;5132790;27;20223;-86
2023/06/28 07:25:16;;;;;;;24.02;16.02;;;;;;;-143.21;74.32;71368.28;5132890;27;20195;-86
2023/06/28 07:27:42;;;;;;;19.55;15.02;;;;;;;-143.21;73.96;71354.41;5132714;27;20222;-87
2023/06/28 07:30:10;;;;;;;20.38;15.30;;;;;;;-143.21;73.31;71344.50;5132119;27;20267;-86
2023/06/28 07:32:37;;;;;;;24.35;14.27;;;;;;;-143.21;71.65;71344.50;5132886;27;20327;-87
2023/06/28 07:35:04;;;;;;;27.17;14.50;;;;;;;-143.21;71.60;71332.59;5132361;27;20663;-86
2023/06/28 07:37:31;;;;;;;19.70;15.00;;;;;;;-143.21;71.50;71322.69;5132415;27;20693;-86
2023/06/28 07:39:59;;;;;;;23.35;13.95;;;;;;;-143.21;70.24;71336.56;5132452;27;20283;-86
2023/06/28 07:42:26;;;;;;;16.98;12.85;;;;;;;-143.21;69.90;71318.72;5132523;27;20211;-86
2023/06/28 07:44:53;;;;;;;17.77;13.40;;;;;;;-143.21;70.23;71306.81;5132412;27;20191;-86
2023/06/28 07:47:20;;;;;;;24.25;12.93;;;;;;;-143.21;68.90;71296.91;5134104;27;20643;-87
2023/06/28 07:49:47;;;;;;;13.73;11.75;;;;;;;-143.21;68.32;71273.13;5139477;27;20191;-87
2023/06/28 07:52:14;;;;;;;19.15;11.32;;;;;;;-143.21;67.34;71265.19;5134779;27;20191;-87
2023/06/28 07:54:41;;;;;;;16.38;11.63;;;;;;;-143.21;66.30;71265.19;5134191;27;20626;-87
2023/06/28 07:57:10;;;;;;;13.23;11.48;;;;;;;-143.21;66.03;71255.28;5133120;27;20198;-86
2023/06/28 07:59:36;;;;;;;15.55;10.52;;;;;;;-143.21;65.59;71253.28;5132233;27;20287;-86
2023/06/28 08:02:04;;;;;;;21.50;10.95;;;;;;;-143.21;65.64;71251.31;5132153;27;20203;-86
2023/06/28 08:04:30;;;;;;;13.80;10.73;;;;;;;-143.21;65.57;71251.31;5131942;27;20272;-86
2023/06/28 08:06:57;;;;;;;16.20;10.70;;;;;;;-143.21;65.47;71241.41;5132077;27;20718;-86
2023/06/28 08:09:24;;;;;;;15.40;10.60;;;;;;;-143.21;64.39;71243.38;5132310;27;20199;-87
2023/06/28 08:11:51;;;;;;;14.52;10.23;;;;;;;-143.21;63.88;71237.44;5132250;27;20278;-87
2023/06/28 08:14:19;;;;;;;15.35;10.93;;;;;;;-143.21;63.15;71233.47;5131766;27;20194;-87
2023/06/28 08:16:47;;;;;;;14.50;10.80;;;;;;;-143.21;63.03;71227.53;5132187;27;20195;-87
2023/06/28 08:19:14;;;;;;;15.20;10.85;;;;;;;-143.21;62.77;71233.47;5131933;27;20197;-86
2023/06/28 08:21:41;;;;;;;14.15;10.55;;;;;;;-143.21;62.56;71213.66;5131934;28;20677;-86
2023/06/28 08:24:08;;;;;;;15.43;10.73;;;;;;;-143.21;61.75;71203.72;5131942;28;20245;-86
2023/06/28 08:26:36;;;;;;;13.93;10.93;;;;;;;-143.21;60.05;71203.72;5132825;28;20187;-86
2023/06/28 08:29:03;;;;;;;17.45;10.93;;;;;;;-143.21;59.76;71185.88;5133024;28;20234;-87
2023/06/28 08:31:31;;;;;;;12.10;10.63;;;;;;;-143.21;58.46;71185.88;5131730;28;20252;-86
2023/06/28 08:33:58;;;;;;;14.00;11.07;;;;;;;-143.21;58.71;71170.03;5131973;28;20187;-86
2023/06/28 08:36:25;;;;;;;13.13;10.18;;;;;;;-143.21;59.00;71172.00;5132049;28;20227;-86
2023/06/28 08:38:51;;;;;;;15.32;11.20;;;;;;;-143.21;58.48;71189.84;5131825;28;20198;-87
2023/06/28 08:41:18;;;;;;;15.82;11.73;;;;;;;-143.21;58.50;71175.97;5132045;27;20233;-86
2023/06/28 08:43:50;;;;;;;20.08;11.00;;;;;;;-143.21;58.72;71172.00;5134759;27;20219;-86
2023/06/28 08:46:17;;;;;;;16.75;10.48;;;;;;;-143.21;58.95;71162.09;5136124;27;20637;-86
2023/06/28 08:48:47;;;;;;;20.35;10.60;;;;;;;-143.21;58.92;71154.16;5136246;27;20193;-87
2023/06/28 08:51:15;;;;;;;15.82;10.00;;;;;;;-143.21;58.55;71158.13;5135808;27;20213;-87
2023/06/28 08:53:44;;;;;;;15.45;10.15;;;;;;;-143.21;59.42;71152.19;5135962;27;20279;-86
2023/06/28 08:56:11;;;;;;;11.85;10.05;;;;;;;-143.21;58.58;71160.13;5135718;27;20202;-87
2023/06/28 08:58:41;;;;;;;12.60;9.63;;;;;;;-143.21;59.35;71154.16;5136006;27;20195;-87
2023/06/28 09:01:09;;;;;;;17.48;10.18;;;;;;;-143.21;58.58;71144.25;5135496;27;20207;-87
2023/06/28 09:03:40;;;;;;;16.98;9.52;;;;;;;-143.21;58.75;71142.28;5135724;27;20218;-87
2023/06/28 09:06:09;;;;;;;11.43;9.43;;;;;;;-143.21;58.61;71128.41;5135548;27;20210;-87
2023/06/28 09:08:36;;;;;;;10.60;9.40;;;;;;;-143.21;57.00;71124.44;5135676;27;20203;-87
2023/06/28 09:11:04;;;;;;;13.43;9.48;;;;;;;-143.21;57.24;71134.34;5136442;27;20188;-86
2023/06/28 09:13:31;;;;;;;11.70;10.27;;;;;;;-143.21;57.69;71154.16;5138256;27;20187;-87
2023/06/28 09:15:58;;;;;;;10.95;9.48;;;;;;;-143.21;58.85;71158.13;5139888;27;20488;-85
2023/06/28 09:18:25;;;;;;;14.38;10.07;;;;;;;-143.21;58.04;71162.09;5145813;27;20195;-86
2023/06/28 09:20:53;;;;;;;13.13;10.73;;;;;;;-143.21;57.48;71138.31;5142791;27;20223;-86
2023/06/28 09:23:26;;;;;;;13.82;10.55;;;;;;;-143.21;56.94;71132.38;5136139;27;20223;-86
2023/06/28 09:25:52;;;;;;;15.32;10.80;;;;;;;-143.21;56.96;71128.41;5135525;27;20188;-87
2023/06/28 09:28:20;;;;;;;15.77;11.68;;;;;;;-143.21;55.57;71104.59;5135327;27;20551;-87
2023/06/28 09:30:52;;;;;;;13.55;10.95;;;;;;;-143.21;55.79;71104.59;5135315;27;20658;-86
2023/06/28 09:33:19;;;;;;;18.05;12.07;;;;;;;-143.21;54.92;71092.72;5135582;27;20175;-88
2023/06/28 09:35:46;;;;;;;14.20;11.18;;;;;;;-143.21;54.50;71086.75;5134968;27;20195;-85
2023/06/28 09:38:13;;;;;;;15.90;11.30;;;;;;;-143.21;55.46;71068.94;5135174;27;20426;-86
2023/06/28 09:40:41;;;;;;;13.65;11.60;;;;;;;-143.21;55.77;71041.16;5135167;27;20191;-86
2023/06/28 09:43:14;;;;;;;16.25;10.90;;;;;;;-143.21;57.11;71019.38;5134868;27;20651;-86
2023/06/28 09:45:41;;;;;;;11.63;10.27;;;;;;;-143.21;55.55;70991.63;5135160;27;20607;-86
2023/06/28 09:48:08;;;;;;;15.52;11.10;;;;;;;-143.21;55.02;70975.75;5135085;27;20194;-87
2023/06/28 09:50:37;;;;;;;14.27;11.00;;;;;;;-143.21;54.22;70993.59;5134728;27;20650;-87
2023/06/28 09:53:06;;;;;;;14.93;10.38;;;;;;;-143.21;54.96;70989.63;5134542;27;20279;-87
2023/06/28 09:55:33;;;;;;;12.73;10.43;;;;;;;-143.21;54.50;70979.72;5135074;27;20195;-87
2023/06/28 09:58:02;;;;;;;12.07;10.50;;;;;;;-143.21;54.64;70975.75;5135717;27;20187;-87
2023/06/28 10:00:30;;;;;;;16.13;10.73;;;;;;;-143.21;54.12;70957.91;5135165;27;20209;-87
2023/06/28 10:02:59;;;;;;;13.70;10.68;;;;;;;-143.21;53.31;70940.06;5134808;27;20227;-86
2023/06/28 10:05:27;;;;;;;18.85;11.07;;;;;;;-143.21;52.83;70930.16;5134886;27;20248;-87
2023/06/28 10:07:55;;;;;;;12.23;10.25;;;;;;;-143.21;53.65;70904.38;5134710;27;20199;-87
2023/06/28 10:10:22;;;;;;;12.98;10.65;;;;;;;-143.21;52.07;70880.59;5134780;27;20219;-87
2023/06/28 10:12:52;;;;;;;12.40;10.27;;;;;;;-143.21;52.70;70868.72;5134461;27;20666;-87
2023/06/28 10:15:24;;;;;;;14.55;10.70;;;;;;;-143.21;52.26;70840.97;5134617;27;20188;-87
2023/06/28 10:17:51;;;;;;;10.98;9.75;;;;;;;-143.21;52.39;70821.13;5134251;27;20658;-88
2023/06/28 10:20:18;;;;;;;13.50;10.80;;;;;;;-143.21;50.44;70801.31;5134257;27;20314;-87
2023/06/28 10:22:46;;;;;;;13.93;10.30;;;;;;;-143.21;50.19;70797.34;5134294;27;20199;-87
2023/06/28 10:25:13;;;;;;;13.45;10.45;;;;;;;-143.21;50.54;70783.47;5134139;27;20275;-87
2023/06/28 10:27:40;;;;;;;13.23;11.07;;;;;;;-143.21;50.16;70759.69;5134906;27;20359;-87
2023/06/28 10:30:08;;;;;;;17.33;11.20;;;;;;;-143.21;49.97;70727.97;5135250;27;20661;-87
2023/06/28 10:32:38;;;;;;;14.35;10.80;;;;;;;-143.21;48.83;70724.00;5134608;27;20192;-86
2023/06/28 10:35:08;;;;;;;15.18;10.75;;;;;;;-143.21;48.89;70716.06;5140267;27;20193;-87
2023/06/28 10:37:35;;;;;;;13.98;9.98;;;;;;;-143.21;48.89;70718.06;5148621;27;20221;-87
2023/06/28 10:40:04;;;;;;;11.30;9.40;;;;;;;-143.21;49.26;70708.16;5149210;27;20737;-87
2023/06/28 10:42:39;;;;;;;10.43;9.27;;;;;;;-143.21;48.81;70704.19;5147416;27;20210;-87
2023/06/28 10:45:08;;;;;;;11.38;9.68;;;;;;;-143.21;48.30;70694.25;5135952;27;20289;-87
2023/06/28 10:47:37;;;;;;;14.10;9.52;;;;;;;-143.21;47.89;70729.94;5135023;27;20195;-87
2023/06/28 10:50:10;;;;;;;15.52;9.80;;;;;;;-143.21;49.13;70755.72;5134311;27;20271;-87
2023/06/28 10:52:46;;;;;;;18.30;10.60;;;;;;;-143.21;49.71;70761.66;5135491;27;20192;-87
2023/06/28 10:55:13;;;;;;;19.48;10.13;;;;;;;-143.21;49.63;70781.50;5133830;27;20219;-80
2023/06/28 10:57:41;;;;;;;16.08;9.88;;;;;;;-143.21;49.97;70783.47;5133233;27;20195;-80
2023/06/28 11:00:29;;;;;;;12.23;9.75;;;;;;;-143.21;50.51;70765.63;5133311;27;20199;-79
2023/06/28 11:03:02;;;;;;;11.82;8.93;;;;;;;-143.21;49.62;70731.94;5133115;27;20293;-79
2023/06/28 11:05:39;;;;;;;11.95;8.50;;;;;;;-143.21;47.84;70698.22;5132191;27;20222;-79